createdAt,value
2022-11-17T00:00:43.400Z,67.90
2022-11-17T00:03:15.577Z,68.57
2022-11-17T00:05:43.617Z,68.41
2022-11-17T00:08:11.054Z,68.93
2022-11-17T00:10:38.556Z,68.94
2022-11-17T00:13:24.055Z,68.81
2022-11-17T00:15:52.094Z,68.59
2022-11-17T00:18:37.604Z,68.71
2022-11-17T00:21:21.749Z,68.84
2022-11-17T00:23:50.690Z,68.60
2022-11-17T00:26:21.041Z,68.18
2022-11-17T00:28:53.297Z,68.20
2022-11-17T00:31:40.961Z,67.84
2022-11-17T00:34:19.235Z,67.61
2022-11-17T00:36:51.814Z,67.67
2022-11-17T00:39:21.660Z,67.98
2022-11-17T00:41:48.936Z,68.01
2022-11-17T00:44:16.741Z,68.03
2022-11-17T00:46:44.475Z,67.97
2022-11-17T00:49:12.232Z,67.47
2022-11-17T00:51:39.892Z,67.86
2022-11-17T00:54:10.523Z,67.50
2022-11-17T00:56:38.008Z,67.60
2022-11-17T00:59:05.765Z,67.71
2022-11-17T01:01:33.148Z,67.21
2022-11-17T01:04:04.428Z,66.96
2022-11-17T01:06:34.700Z,66.74
2022-11-17T01:09:04.955Z,67.17
2022-11-17T01:11:32.649Z,67.19
2022-11-17T01:14:00.880Z,66.72
2022-11-17T01:16:29.512Z,67.08
2022-11-17T01:18:59.917Z,67.22
2022-11-17T01:21:28.584Z,66.21
2022-11-17T01:23:57.223Z,66.24
2022-11-17T01:26:27.352Z,66.23
2022-11-17T01:28:55.926Z,66.14
2022-11-17T01:31:26.397Z,66.06
2022-11-17T01:33:54.393Z,66.25
2022-11-17T01:36:52.800Z,66.39
2022-11-17T01:39:22.728Z,66.20
2022-11-17T01:41:50.136Z,66.25
2022-11-17T01:44:44.294Z,66.70
2022-11-17T01:47:36.277Z,66.77
2022-11-17T01:50:10.353Z,66.29
2022-11-17T01:52:40.742Z,66.42
2022-11-17T01:55:10.525Z,66.38
2022-11-17T01:57:54.630Z,66.45
2022-11-17T02:00:22.120Z,66.15
2022-11-17T02:02:50.280Z,66.07
2022-11-17T02:05:40.558Z,66.40
2022-11-17T02:08:08.883Z,66.29
2022-11-17T02:10:37.761Z,66.30
2022-11-17T02:13:05.707Z,66.44
2022-11-17T02:15:32.967Z,66.81
2022-11-17T02:18:01.483Z,66.76
2022-11-17T02:20:53.885Z,67.37
2022-11-17T02:23:51.505Z,67.81
2022-11-17T02:26:52.611Z,67.26
2022-11-17T02:29:48.312Z,67.25
2022-11-17T02:32:31.067Z,67.08
2022-11-17T02:35:54.257Z,66.92
2022-11-17T02:38:46.049Z,66.75
2022-11-17T02:41:23.778Z,67.13
2022-11-17T02:44:30.331Z,66.69
2022-11-17T02:47:09.348Z,66.13
2022-11-17T02:49:40.375Z,64.69
2022-11-17T02:52:09.844Z,63.72
2022-11-17T02:54:37.250Z,63.47
2022-11-17T02:57:04.840Z,62.78
2022-11-17T02:59:41.866Z,62.06
2022-11-17T03:02:48.122Z,62.00
2022-11-17T03:05:39.941Z,61.54
2022-11-17T03:08:32.983Z,60.98
2022-11-17T03:11:03.887Z,60.98
2022-11-17T03:13:43.590Z,61.03
2022-11-17T03:16:38.030Z,60.81
2022-11-17T03:19:16.293Z,61.29
2022-11-17T03:22:08.721Z,60.91
2022-11-17T03:24:58.733Z,61.51
2022-11-17T03:27:30.622Z,61.70
2022-11-17T03:30:02.460Z,61.41
2022-11-17T03:32:36.698Z,60.95
2022-11-17T03:35:10.460Z,60.64
2022-11-17T03:37:42.322Z,60.58
2022-11-17T03:40:13.828Z,60.14
2022-11-17T03:42:47.026Z,60.09
2022-11-17T03:45:50.634Z,59.66
2022-11-17T03:48:30.374Z,59.93
2022-11-17T03:51:18.375Z,58.86
2022-11-17T03:53:47.099Z,59.30
2022-11-17T03:56:29.640Z,58.90
2022-11-17T03:59:02.323Z,59.00
2022-11-17T04:01:32.647Z,59.65
2022-11-17T04:04:00.801Z,59.08
2022-11-17T04:06:28.073Z,59.57
2022-11-17T04:08:56.605Z,60.02
2022-11-17T04:11:42.184Z,60.18
2022-11-17T04:14:29.614Z,60.15
2022-11-17T04:16:56.968Z,59.94
2022-11-17T04:19:26.205Z,59.93
2022-11-17T04:21:53.482Z,60.52
2022-11-17T04:24:20.668Z,60.54
2022-11-17T04:27:06.620Z,60.20
2022-11-17T04:29:35.195Z,60.90
2022-11-17T04:32:02.415Z,61.93
2022-11-17T04:34:29.729Z,61.91
2022-11-17T04:36:57.106Z,61.65
2022-11-17T04:39:24.420Z,61.30
2022-11-17T04:41:54.439Z,61.87
2022-11-17T04:44:27.678Z,62.52
2022-11-17T04:46:56.308Z,62.02
2022-11-17T04:49:25.428Z,62.08
2022-11-17T04:51:53.906Z,62.79
2022-11-17T04:54:24.835Z,62.45
2022-11-17T04:56:53.588Z,62.19
2022-11-17T04:59:23.403Z,62.73
2022-11-17T05:01:50.794Z,62.92
2022-11-17T05:04:40.311Z,62.89
2022-11-17T05:07:09.224Z,62.48
2022-11-17T05:09:36.895Z,62.17
2022-11-17T05:12:22.625Z,61.48
2022-11-17T05:14:50.698Z,60.95
2022-11-17T05:17:18.628Z,60.87
2022-11-17T05:19:47.570Z,60.63
2022-11-17T05:22:40.068Z,60.62
2022-11-17T05:25:08.325Z,61.43
2022-11-17T05:27:36.164Z,61.68
2022-11-17T05:30:07.313Z,60.93
2022-11-17T05:32:35.394Z,60.72
2022-11-17T05:35:02.599Z,60.19
2022-11-17T05:37:30.275Z,60.68
2022-11-17T05:39:57.684Z,60.21
2022-11-17T05:42:25.064Z,59.87
2022-11-17T05:44:52.357Z,61.08
2022-11-17T05:47:20.127Z,61.14
2022-11-17T05:49:50.416Z,62.20
2022-11-17T05:52:17.665Z,61.73
2022-11-17T05:54:45.117Z,62.65
2022-11-17T05:57:22.072Z,62.93
2022-11-17T05:59:57.143Z,61.88
2022-11-17T06:02:32.265Z,63.01
2022-11-17T06:04:59.603Z,62.41
2022-11-17T06:07:26.985Z,63.35
2022-11-17T06:09:55.223Z,64.28
2022-11-17T06:12:22.485Z,63.35
2022-11-17T06:14:49.845Z,63.88
2022-11-17T06:17:23.304Z,62.70
2022-11-17T06:20:05.709Z,62.76
2022-11-17T06:22:33.774Z,61.57
2022-11-17T06:25:04.609Z,60.82
2022-11-17T06:27:33.536Z,60.86
2022-11-17T06:30:03.828Z,60.43
2022-11-17T06:32:36.924Z,61.49
2022-11-17T06:35:08.164Z,60.89
2022-11-17T06:37:35.734Z,61.57
2022-11-17T06:40:03.453Z,61.10
2022-11-17T06:42:49.835Z,61.14
2022-11-17T06:45:17.495Z,60.91
2022-11-17T06:47:46.312Z,60.15
2022-11-17T06:50:15.329Z,60.45
2022-11-17T06:52:42.516Z,59.69
2022-11-17T06:55:10.435Z,60.40
2022-11-17T06:57:37.787Z,59.69
2022-11-17T07:00:06.611Z,62.03
2022-11-17T07:02:33.875Z,60.72
2022-11-17T07:05:01.273Z,60.49
2022-11-17T07:07:28.927Z,59.96
2022-11-17T07:10:00.731Z,60.61
2022-11-17T07:12:30.378Z,60.54
2022-11-17T07:14:57.461Z,60.39
2022-11-17T07:17:24.748Z,60.96
2022-11-17T07:19:53.718Z,60.42
2022-11-17T07:22:20.884Z,61.34
2022-11-17T07:24:47.949Z,60.85
2022-11-17T07:27:15.073Z,61.25
2022-11-17T07:29:42.204Z,62.18
2022-11-17T07:32:13.857Z,61.38
2022-11-17T07:34:41.548Z,61.36
2022-11-17T07:37:08.998Z,61.42
2022-11-17T07:39:36.124Z,61.94
2022-11-17T07:42:03.584Z,61.83
2022-11-17T07:44:31.866Z,61.72
2022-11-17T07:46:59.059Z,62.12
2022-11-17T07:49:27.332Z,61.79
2022-11-17T07:51:56.869Z,61.04
2022-11-17T07:54:24.151Z,63.00
2022-11-17T07:56:51.360Z,61.80
2022-11-17T07:59:21.405Z,61.74
2022-11-17T08:01:49.047Z,61.46
2022-11-17T08:04:16.403Z,61.38
2022-11-17T08:06:43.508Z,61.24
2022-11-17T08:09:13.649Z,61.18
2022-11-17T08:11:41.152Z,61.47
2022-11-17T08:14:08.408Z,61.54
2022-11-17T08:16:35.944Z,61.39
2022-11-17T08:19:06.220Z,61.54
2022-11-17T08:21:33.513Z,61.69
2022-11-17T08:24:00.652Z,61.63
2022-11-17T08:26:27.988Z,61.76
2022-11-17T08:28:58.899Z,63.67
2022-11-17T08:31:27.101Z,62.43
2022-11-17T08:33:54.392Z,62.27
2022-11-17T08:36:21.737Z,62.09
2022-11-17T08:38:49.290Z,61.94
2022-11-17T08:41:16.963Z,61.31
2022-11-17T08:43:44.068Z,61.97
2022-11-17T08:46:14.356Z,61.87
2022-11-17T08:48:41.640Z,61.90
2022-11-17T08:51:10.549Z,60.91
2022-11-17T08:53:37.781Z,61.75
2022-11-17T08:56:10.177Z,61.50
2022-11-17T08:58:44.017Z,61.11
2022-11-17T09:01:16.614Z,60.89
2022-11-17T09:03:47.409Z,60.91
2022-11-17T09:06:16.623Z,60.84
2022-11-17T09:08:46.827Z,60.83
2022-11-17T09:11:15.143Z,60.82
2022-11-17T09:13:42.581Z,60.64
2022-11-17T09:16:12.038Z,61.36
2022-11-17T09:18:40.341Z,60.82
2022-11-17T09:21:11.623Z,60.43
2022-11-17T09:23:39.460Z,60.55
2022-11-17T09:26:13.610Z,61.39
2022-11-17T09:28:45.951Z,61.10
2022-11-17T09:31:15.736Z,60.81
2022-11-17T09:33:44.195Z,60.78
2022-11-17T09:36:14.079Z,61.10
2022-11-17T09:38:42.290Z,60.76
2022-11-17T09:41:15.758Z,61.11
2022-11-17T09:43:58.766Z,61.03
2022-11-17T09:46:45.701Z,60.88
2022-11-17T09:49:22.346Z,61.05
2022-11-17T09:51:51.098Z,61.09
2022-11-17T09:54:30.464Z,61.07
2022-11-17T09:56:59.810Z,60.59
2022-11-17T09:59:29.248Z,60.36
2022-11-17T10:01:56.564Z,60.22
2022-11-17T10:04:26.961Z,60.66
2022-11-17T10:06:54.649Z,61.10
2022-11-17T10:09:36.535Z,62.13
2022-11-17T10:12:18.508Z,62.08
2022-11-17T10:14:49.119Z,62.38
2022-11-17T10:17:18.334Z,62.08
2022-11-17T10:19:46.006Z,62.48
2022-11-17T10:22:52.636Z,64.15
2022-11-17T10:25:39.554Z,63.03
2022-11-17T10:28:08.795Z,63.12
2022-11-17T10:30:36.743Z,62.81
2022-11-17T10:33:04.776Z,62.83
2022-11-17T10:35:35.487Z,62.58
2022-11-17T10:38:17.522Z,62.59
2022-11-17T10:40:45.519Z,62.24
2022-11-17T10:43:12.834Z,62.20
2022-11-17T10:45:51.204Z,62.46
2022-11-17T10:48:36.324Z,62.29
2022-11-17T10:51:13.208Z,62.01
2022-11-17T10:53:46.243Z,62.32
2022-11-17T10:56:21.802Z,62.75
2022-11-17T10:59:03.918Z,62.21
2022-11-17T11:01:39.423Z,63.09
2022-11-17T11:04:28.419Z,63.19
2022-11-17T11:07:20.180Z,63.80
2022-11-17T11:09:59.986Z,64.16
2022-11-17T11:12:48.745Z,64.30
2022-11-17T11:15:20.990Z,64.49
2022-11-17T11:17:48.337Z,64.95
2022-11-17T11:20:18.636Z,64.96
2022-11-17T11:23:09.912Z,65.34
2022-11-17T11:25:51.735Z,65.05
2022-11-17T11:28:48.136Z,64.57
2022-11-17T11:31:42.443Z,64.13
2022-11-17T11:34:28.679Z,63.50
2022-11-17T11:37:16.684Z,62.85
2022-11-17T11:39:59.199Z,62.70
2022-11-17T11:42:57.161Z,62.88
2022-11-17T11:45:33.430Z,62.34
2022-11-17T11:48:28.403Z,63.06
2022-11-17T11:51:05.643Z,62.34
2022-11-17T11:53:38.628Z,62.02
2022-11-17T11:56:15.149Z,62.21
2022-11-17T11:59:10.446Z,61.74
2022-11-17T12:01:47.988Z,61.76
2022-11-17T12:04:46.293Z,61.99
2022-11-17T12:07:19.807Z,62.18
2022-11-17T12:10:05.581Z,62.70
2022-11-17T12:12:39.501Z,63.60
2022-11-17T12:15:06.581Z,63.48
2022-11-17T12:17:35.680Z,63.22
2022-11-17T12:20:10.732Z,63.10
2022-11-17T12:22:55.507Z,62.68
2022-11-17T12:25:32.004Z,62.33
2022-11-17T12:27:59.297Z,62.01
2022-11-17T12:30:39.181Z,61.82
2022-11-17T12:33:09.833Z,61.65
2022-11-17T12:35:41.609Z,62.09
2022-11-17T12:38:17.847Z,62.08
2022-11-17T12:40:52.405Z,62.70
2022-11-17T12:43:22.689Z,62.36
2022-11-17T12:45:52.935Z,62.21
2022-11-17T12:48:34.392Z,62.01
2022-11-17T12:51:22.439Z,62.27
2022-11-17T12:54:28.569Z,61.96
2022-11-17T12:57:16.861Z,61.55
2022-11-17T13:00:24.807Z,61.52
2022-11-17T13:03:12.178Z,61.76
2022-11-17T13:05:39.398Z,61.82
2022-11-17T13:08:09.812Z,62.14
2022-11-17T13:10:37.035Z,61.73
2022-11-17T13:13:18.647Z,61.73
2022-11-17T13:15:53.889Z,61.56
2022-11-17T13:18:28.290Z,61.46
2022-11-17T13:20:56.235Z,61.21
2022-11-17T13:23:32.144Z,61.08
2022-11-17T13:26:26.612Z,60.83
2022-11-17T13:29:14.494Z,60.54
2022-11-17T13:31:41.832Z,60.61
2022-11-17T13:34:21.438Z,60.83
2022-11-17T13:37:01.696Z,60.88
2022-11-17T13:39:29.209Z,61.18
2022-11-17T13:41:57.515Z,61.52
2022-11-17T13:44:27.973Z,61.56
2022-11-17T13:46:56.337Z,61.30
2022-11-17T13:49:38.233Z,61.72
2022-11-17T13:52:13.042Z,62.19
2022-11-17T13:54:46.416Z,62.32
2022-11-17T13:57:25.970Z,61.77
2022-11-17T13:59:55.203Z,62.03
2022-11-17T14:02:25.050Z,61.95
2022-11-17T14:05:11.249Z,62.14
2022-11-17T14:07:39.603Z,61.54
2022-11-17T14:10:23.604Z,62.09
2022-11-17T14:13:14.687Z,61.16
2022-11-17T14:15:43.142Z,61.08
2022-11-17T14:18:46.649Z,61.07
2022-11-17T14:21:17.871Z,61.26
2022-11-17T14:23:46.202Z,61.31
2022-11-17T14:26:22.458Z,61.81
2022-11-17T14:28:51.105Z,61.50
2022-11-17T14:31:19.458Z,61.75
2022-11-17T14:33:47.055Z,62.00
2022-11-17T14:36:16.868Z,61.93
2022-11-17T14:38:48.374Z,62.54
2022-11-17T14:41:17.871Z,62.04
2022-11-17T14:43:45.239Z,62.13
2022-11-17T14:46:21.889Z,62.87
2022-11-17T14:48:49.530Z,62.96
2022-11-17T14:51:17.142Z,63.23
2022-11-17T14:53:46.191Z,64.48
2022-11-17T14:56:16.700Z,64.27
2022-11-17T14:58:44.287Z,64.17
2022-11-17T15:01:17.778Z,63.71
2022-11-17T15:03:45.762Z,64.13
2022-11-17T15:06:19.481Z,64.21
2022-11-17T15:08:48.808Z,64.42
2022-11-17T15:11:18.339Z,64.79
2022-11-17T15:13:46.078Z,64.24
2022-11-17T15:16:13.792Z,64.01
2022-11-17T15:18:41.017Z,63.76
2022-11-17T15:21:10.388Z,64.00
2022-11-17T15:23:39.180Z,64.38
2022-11-17T15:26:08.438Z,65.03
2022-11-17T15:28:35.872Z,65.52
2022-11-17T15:31:17.001Z,66.76
2022-11-17T15:33:46.843Z,66.86
2022-11-17T15:36:17.066Z,67.32
2022-11-17T15:38:45.275Z,67.31
2022-11-17T15:41:13.768Z,67.05
2022-11-17T15:43:43.872Z,66.45
2022-11-17T15:46:20.812Z,67.65
2022-11-17T15:48:52.296Z,66.72
2022-11-17T15:51:22.623Z,67.40
2022-11-17T15:53:51.690Z,68.37
2022-11-17T15:56:21.885Z,68.85
2022-11-17T15:58:54.612Z,69.46
2022-11-17T16:01:27.995Z,70.64
2022-11-17T16:04:01.560Z,71.10
2022-11-17T16:06:30.528Z,70.86
2022-11-17T16:08:58.179Z,71.38
2022-11-17T16:11:27.313Z,72.44
2022-11-17T16:13:58.981Z,72.54
2022-11-17T16:16:29.178Z,73.47
2022-11-17T16:18:57.305Z,73.87
2022-11-17T16:21:24.713Z,73.77
2022-11-17T16:23:55.112Z,74.55
2022-11-17T16:26:24.541Z,74.29
2022-11-17T16:29:04.299Z,75.51
2022-11-17T16:31:33.859Z,74.63
2022-11-17T16:34:06.426Z,75.45
2022-11-17T16:36:37.529Z,75.24
2022-11-17T16:39:07.617Z,75.40
2022-11-17T16:41:37.465Z,75.63
2022-11-17T16:44:17.780Z,76.45
2022-11-17T16:46:47.697Z,75.00
2022-11-17T16:49:17.227Z,73.99
2022-11-17T16:51:52.818Z,74.44
2022-11-17T16:54:21.906Z,73.38
2022-11-17T16:56:49.416Z,72.44
2022-11-17T16:59:17.353Z,72.38
2022-11-17T17:01:44.737Z,72.80
2022-11-17T17:04:13.102Z,72.76
2022-11-17T17:06:43.070Z,72.61
2022-11-17T17:09:13.162Z,72.10
2022-11-17T17:11:40.829Z,71.76
2022-11-17T17:14:11.603Z,71.59
2022-11-17T17:16:40.116Z,71.02
2022-11-17T17:19:10.439Z,70.26
2022-11-17T17:21:39.220Z,69.33
2022-11-17T17:24:07.489Z,68.85
2022-11-17T17:26:36.553Z,67.96
2022-11-17T17:29:06.113Z,67.60
2022-11-17T17:31:37.882Z,67.88
2022-11-17T17:34:06.646Z,66.94
2022-11-17T17:36:35.344Z,66.39
2022-11-17T17:39:03.213Z,65.98
2022-11-17T17:41:40.551Z,65.80
2022-11-17T17:44:13.619Z,65.52
2022-11-17T17:46:41.119Z,65.31
2022-11-17T17:49:09.363Z,64.83
2022-11-17T17:51:40.212Z,64.53
2022-11-17T17:54:08.009Z,64.54
2022-11-17T17:56:35.643Z,64.07
2022-11-17T17:59:04.996Z,64.08
2022-11-17T18:01:34.236Z,63.96
2022-11-17T18:04:05.250Z,63.95
2022-11-17T18:06:42.474Z,63.77
2022-11-17T18:09:11.205Z,63.50
2022-11-17T18:11:45.989Z,63.33
2022-11-17T18:14:15.601Z,63.00
2022-11-17T18:16:44.814Z,63.26
2022-11-17T18:19:15.952Z,63.05
2022-11-17T18:21:43.912Z,63.42
2022-11-17T18:24:12.873Z,62.64
2022-11-17T18:26:41.647Z,63.04
2022-11-17T18:29:13.852Z,62.59
2022-11-17T18:31:41.640Z,62.86
2022-11-17T18:34:15.237Z,62.58
2022-11-17T18:36:43.036Z,62.54
2022-11-17T18:39:11.002Z,62.65
2022-11-17T18:41:38.473Z,62.33
2022-11-17T18:44:06.162Z,62.25
2022-11-17T18:46:34.139Z,62.32
2022-11-17T18:49:01.710Z,62.21
2022-11-17T18:51:31.040Z,62.27
2022-11-17T18:54:01.243Z,62.25
2022-11-17T18:56:32.813Z,62.18
2022-11-17T18:59:01.699Z,62.24
2022-11-17T19:01:30.823Z,62.19
2022-11-17T19:04:01.188Z,62.00
2022-11-17T19:06:30.712Z,61.96
2022-11-17T19:09:00.021Z,62.15
2022-11-17T19:11:30.245Z,62.23
2022-11-17T19:13:59.211Z,62.01
2022-11-17T19:16:27.328Z,62.11
2022-11-17T19:18:56.022Z,61.72
2022-11-17T19:21:27.495Z,61.67
2022-11-17T19:23:58.346Z,61.70
2022-11-17T19:26:31.853Z,61.85
2022-11-17T19:29:14.322Z,61.30
2022-11-17T19:31:45.068Z,61.30
2022-11-17T19:34:12.526Z,61.44
2022-11-17T19:36:39.938Z,61.32
2022-11-17T19:39:07.441Z,61.27
2022-11-17T19:41:40.034Z,61.10
2022-11-17T19:44:08.989Z,61.41
2022-11-17T19:46:36.585Z,61.26
2022-11-17T19:49:06.030Z,61.28
2022-11-17T19:51:38.504Z,61.41
2022-11-17T19:54:14.650Z,61.37
2022-11-17T19:56:42.161Z,61.39
2022-11-17T19:59:15.566Z,61.08
2022-11-17T20:01:43.594Z,61.14
2022-11-17T20:04:10.916Z,61.00
2022-11-17T20:06:39.800Z,60.94
2022-11-17T20:09:13.677Z,60.74
2022-11-17T20:11:42.252Z,60.72
2022-11-17T20:14:10.266Z,60.46
2022-11-17T20:16:38.977Z,60.69
2022-11-17T20:19:06.654Z,60.31
2022-11-17T20:21:34.985Z,60.46
2022-11-17T20:24:02.911Z,60.36
2022-11-17T20:26:36.034Z,60.37
2022-11-17T20:29:03.549Z,60.23
2022-11-17T20:31:33.780Z,60.03
2022-11-17T20:34:02.664Z,60.06
2022-11-17T20:36:32.275Z,60.03
2022-11-17T20:39:02.284Z,60.10
2022-11-17T20:41:30.511Z,60.11
2022-11-17T20:43:59.635Z,60.06
2022-11-17T20:46:27.196Z,59.93
2022-11-17T20:48:54.919Z,59.92
2022-11-17T20:51:23.994Z,59.72
2022-11-17T20:53:51.853Z,59.82
2022-11-17T20:56:20.081Z,59.86
2022-11-17T20:58:47.663Z,59.70
2022-11-17T21:01:20.114Z,59.48
2022-11-17T21:03:47.918Z,59.64
2022-11-17T21:06:16.498Z,59.45
2022-11-17T21:08:45.382Z,59.41
2022-11-17T21:11:36.719Z,59.51
2022-11-17T21:14:05.904Z,59.56
2022-11-17T21:16:34.775Z,59.29
2022-11-17T21:19:02.248Z,59.24
2022-11-17T21:21:30.479Z,59.30
2022-11-17T21:23:57.872Z,59.39
2022-11-17T21:26:25.244Z,58.96
2022-11-17T21:28:52.693Z,59.23
2022-11-17T21:31:22.529Z,59.11
2022-11-17T21:33:53.951Z,59.02
2022-11-17T21:36:23.080Z,58.88
2022-11-17T21:38:51.172Z,58.88
2022-11-17T21:41:26.603Z,58.54
2022-11-17T21:43:55.198Z,58.88
2022-11-17T21:46:26.439Z,58.51
2022-11-17T21:48:55.956Z,58.55
2022-11-17T21:51:26.287Z,58.31
2022-11-17T21:53:56.072Z,58.35
2022-11-17T21:56:27.138Z,58.10
2022-11-17T21:58:58.886Z,58.07
2022-11-17T22:01:26.477Z,58.12
2022-11-17T22:03:53.701Z,58.14
2022-11-17T22:06:23.312Z,58.02
2022-11-17T22:08:51.431Z,58.13
2022-11-17T22:11:37.016Z,58.04
2022-11-17T22:14:12.025Z,58.00
2022-11-17T22:16:42.137Z,58.17
2022-11-17T22:19:10.614Z,57.98
2022-11-17T22:21:39.010Z,58.02
2022-11-17T22:24:07.954Z,58.18
2022-11-17T22:26:38.385Z,57.97
2022-11-17T22:29:08.948Z,57.91
2022-11-17T22:31:36.052Z,58.43
2022-11-17T22:34:03.883Z,58.31
2022-11-17T22:36:31.343Z,58.38
2022-11-17T22:38:58.593Z,58.25
2022-11-17T22:41:26.611Z,58.28
2022-11-17T22:43:56.066Z,58.44
2022-11-17T22:46:26.206Z,58.31
2022-11-17T22:48:54.046Z,58.58
2022-11-17T22:51:40.428Z,58.67
2022-11-17T22:54:08.869Z,58.65
2022-11-17T22:56:36.484Z,58.86
2022-11-17T22:59:04.136Z,59.11
2022-11-17T23:01:31.677Z,59.00
2022-11-17T23:03:59.620Z,59.04
2022-11-17T23:06:30.194Z,59.22
2022-11-17T23:09:00.145Z,59.21
2022-11-17T23:11:37.160Z,59.32
2022-11-17T23:14:08.210Z,59.14
2022-11-17T23:16:36.976Z,59.33
2022-11-17T23:19:05.275Z,59.31
2022-11-17T23:21:33.153Z,59.15
2022-11-17T23:24:00.386Z,59.15
2022-11-17T23:26:27.820Z,58.96
2022-11-17T23:28:55.283Z,59.39
2022-11-17T23:31:22.596Z,59.16
2022-11-17T23:33:50.079Z,58.97
2022-11-17T23:36:20.361Z,59.26
2022-11-17T23:38:48.955Z,59.26
2022-11-17T23:41:19.316Z,59.00
2022-11-17T23:43:46.775Z,59.34
2022-11-17T23:46:16.789Z,59.35
2022-11-17T23:48:44.847Z,59.41
2022-11-17T23:51:15.955Z,59.44
2022-11-17T23:53:43.684Z,59.38
2022-11-17T23:56:11.370Z,59.47
2022-11-17T23:58:42.137Z,59.46
